sensor_id;sensor_type;location;lat;lon;timestamp;pressure;altitude;pressure_sealevel;temperature;humidity
40570;BME280;26270;34.428;-119.710;2022-07-25T00:02:11;100803.73;;;28.38;37.75
40570;BME280;26270;34.428;-119.710;2022-07-25T00:04:40;100800.92;;;28.12;38.16
40570;BME280;26270;34.428;-119.710;2022-07-25T00:07:08;100799.48;;;27.43;39.11
40570;BME280;26270;34.428;-119.710;2022-07-25T00:09:37;100798.18;;;27.16;39.67
40570;BME280;26270;34.428;-119.710;2022-07-25T00:12:06;100795.77;;;26.84;39.85
40570;BME280;26270;34.428;-119.710;2022-07-25T00:14:35;100797.94;;;26.77;40.06
40570;BME280;26270;34.428;-119.710;2022-07-25T00:17:04;100794.98;;;26.28;40.71
40570;BME280;26270;34.428;-119.710;2022-07-25T00:19:32;100793.62;;;26.22;41.33
40570;BME280;26270;34.428;-119.710;2022-07-25T00:22:00;100791.15;;;26.34;41.57
40570;BME280;26270;34.428;-119.710;2022-07-25T00:24:29;100787.21;;;26.31;41.88
40570;BME280;26270;34.428;-119.710;2022-07-25T00:26:58;100786.08;;;26.25;42.06
40570;BME280;26270;34.428;-119.710;2022-07-25T00:29:26;100787.63;;;25.92;42.74
40570;BME280;26270;34.428;-119.710;2022-07-25T00:31:54;100779.51;;;25.87;43.07
40570;BME280;26270;34.428;-119.710;2022-07-25T00:34:22;100775.06;;;25.93;43.29
40570;BME280;26270;34.428;-119.710;2022-07-25T00:36:51;100771.66;;;25.94;43.31
40570;BME280;26270;34.428;-119.710;2022-07-25T00:39:19;100768.83;;;25.39;43.83
40570;BME280;26270;34.428;-119.710;2022-07-25T00:41:47;100767.43;;;25.32;43.94
40570;BME280;26270;34.428;-119.710;2022-07-25T00:44:24;100765.87;;;25.40;44.32
40570;BME280;26270;34.428;-119.710;2022-07-25T00:46:53;100760.55;;;25.03;44.73
40570;BME280;26270;34.428;-119.710;2022-07-25T00:49:22;100758.60;;;25.04;44.83
40570;BME280;26270;34.428;-119.710;2022-07-25T00:51:51;100759.55;;;24.75;45.28
40570;BME280;26270;34.428;-119.710;2022-07-25T00:54:20;100754.43;;;24.55;45.45
40570;BME280;26270;34.428;-119.710;2022-07-25T00:56:49;100751.19;;;24.80;45.34
40570;BME280;26270;34.428;-119.710;2022-07-25T00:59:18;100748.78;;;24.37;45.63
40570;BME280;26270;34.428;-119.710;2022-07-25T01:01:46;100751.35;;;24.22;46.53
40570;BME280;26270;34.428;-119.710;2022-07-25T01:04:15;100744.50;;;24.46;46.67
40570;BME280;26270;34.428;-119.710;2022-07-25T01:06:44;100740.44;;;24.04;47.18
40570;BME280;26270;34.428;-119.710;2022-07-25T01:09:13;100736.97;;;24.11;47.24
40570;BME280;26270;34.428;-119.710;2022-07-25T01:11:41;100737.51;;;24.30;47.23
40570;BME280;26270;34.428;-119.710;2022-07-25T01:14:09;100736.45;;;24.17;47.21
40570;BME280;26270;34.428;-119.710;2022-07-25T01:16:37;100732.56;;;24.13;47.06
40570;BME280;26270;34.428;-119.710;2022-07-25T01:19:06;100733.38;;;24.07;47.26
40570;BME280;26270;34.428;-119.710;2022-07-25T01:21:37;100732.63;;;23.89;47.85
40570;BME280;26270;34.428;-119.710;2022-07-25T01:24:06;100733.15;;;23.86;47.94
40570;BME280;26270;34.428;-119.710;2022-07-25T01:26:36;100731.86;;;23.69;48.20
40570;BME280;26270;34.428;-119.710;2022-07-25T01:29:05;100729.33;;;24.10;47.71
40570;BME280;26270;34.428;-119.710;2022-07-25T01:31:33;100729.88;;;23.84;48.28
40570;BME280;26270;34.428;-119.710;2022-07-25T01:34:00;100730.07;;;23.99;47.68
40570;BME280;26270;34.428;-119.710;2022-07-25T01:36:29;100731.32;;;24.21;47.48
40570;BME280;26270;34.428;-119.710;2022-07-25T01:38:57;100732.47;;;24.27;47.31
40570;BME280;26270;34.428;-119.710;2022-07-25T01:41:25;100734.62;;;24.10;48.29
40570;BME280;26270;34.428;-119.710;2022-07-25T01:43:53;100739.87;;;24.25;48.51
40570;BME280;26270;34.428;-119.710;2022-07-25T01:46:22;100742.02;;;23.96;49.41
40570;BME280;26270;34.428;-119.710;2022-07-25T01:48:51;100743.12;;;23.96;49.34
40570;BME280;26270;34.428;-119.710;2022-07-25T01:51:19;100740.33;;;24.16;48.90
40570;BME280;26270;34.428;-119.710;2022-07-25T01:53:48;100742.10;;;24.05;49.30
40570;BME280;26270;34.428;-119.710;2022-07-25T01:56:16;100747.22;;;23.71;49.91
40570;BME280;26270;34.428;-119.710;2022-07-25T01:58:44;100747.72;;;23.84;50.04
40570;BME280;26270;34.428;-119.710;2022-07-25T02:01:12;100750.09;;;23.73;50.47
40570;BME280;26270;34.428;-119.710;2022-07-25T02:03:41;100752.17;;;23.69;50.58
40570;BME280;26270;34.428;-119.710;2022-07-25T02:06:09;100749.85;;;23.69;50.80
40570;BME280;26270;34.428;-119.710;2022-07-25T02:08:37;100750.40;;;23.51;51.04
40570;BME280;26270;34.428;-119.710;2022-07-25T02:11:05;100754.69;;;23.49;51.54
40570;BME280;26270;34.428;-119.710;2022-07-25T02:13:33;100756.59;;;23.37;51.65
40570;BME280;26270;34.428;-119.710;2022-07-25T02:16:02;100759.80;;;23.42;51.91
40570;BME280;26270;34.428;-119.710;2022-07-25T02:18:30;100760.75;;;23.32;51.93
40570;BME280;26270;34.428;-119.710;2022-07-25T02:20:58;100761.70;;;23.16;52.32
40570;BME280;26270;34.428;-119.710;2022-07-25T02:23:26;100759.86;;;23.00;53.00
40570;BME280;26270;34.428;-119.710;2022-07-25T02:25:54;100756.63;;;23.01;53.66
40570;BME280;26270;34.428;-119.710;2022-07-25T02:28:23;100758.62;;;23.05;53.18
40570;BME280;26270;34.428;-119.710;2022-07-25T02:30:51;100755.78;;;22.80;53.63
40570;BME280;26270;34.428;-119.710;2022-07-25T02:33:19;100757.20;;;22.81;53.94
40570;BME280;26270;34.428;-119.710;2022-07-25T02:35:47;100759.72;;;22.72;54.26
40570;BME280;26270;34.428;-119.710;2022-07-25T02:38:15;100761.71;;;22.76;54.10
40570;BME280;26270;34.428;-119.710;2022-07-25T02:40:44;100759.78;;;22.71;54.31
40570;BME280;26270;34.428;-119.710;2022-07-25T02:43:12;100765.67;;;22.61;54.96
40570;BME280;26270;34.428;-119.710;2022-07-25T02:45:41;100766.88;;;22.48;55.07
40570;BME280;26270;34.428;-119.710;2022-07-25T02:48:10;100769.48;;;22.58;55.13
40570;BME280;26270;34.428;-119.710;2022-07-25T02:50:38;100771.17;;;22.56;55.22
40570;BME280;26270;34.428;-119.710;2022-07-25T02:53:06;100772.03;;;22.75;54.93
40570;BME280;26270;34.428;-119.710;2022-07-25T02:55:34;100769.20;;;22.85;54.08
40570;BME280;26270;34.428;-119.710;2022-07-25T02:58:03;100773.63;;;22.74;54.12
40570;BME280;26270;34.428;-119.710;2022-07-25T03:00:31;100778.98;;;22.84;54.06
40570;BME280;26270;34.428;-119.710;2022-07-25T03:02:59;100788.32;;;22.81;54.24
40570;BME280;26270;34.428;-119.710;2022-07-25T03:05:27;100792.68;;;22.91;54.33
40570;BME280;26270;34.428;-119.710;2022-07-25T03:07:56;100794.97;;;22.78;54.30
40570;BME280;26270;34.428;-119.710;2022-07-25T03:10:24;100796.78;;;22.60;54.63
40570;BME280;26270;34.428;-119.710;2022-07-25T03:12:52;100807.64;;;22.71;54.86
40570;BME280;26270;34.428;-119.710;2022-07-25T03:15:21;100810.52;;;22.61;54.92
40570;BME280;26270;34.428;-119.710;2022-07-25T03:17:49;100816.69;;;22.52;55.11
40570;BME280;26270;34.428;-119.710;2022-07-25T03:20:18;100820.19;;;22.37;55.91
40570;BME280;26270;34.428;-119.710;2022-07-25T03:22:46;100822.96;;;22.22;55.94
40570;BME280;26270;34.428;-119.710;2022-07-25T03:25:14;100824.99;;;22.35;56.32
40570;BME280;26270;34.428;-119.710;2022-07-25T03:27:43;100823.27;;;22.30;56.25
40570;BME280;26270;34.428;-119.710;2022-07-25T03:30:11;100828.76;;;22.02;57.35
40570;BME280;26270;34.428;-119.710;2022-07-25T03:32:40;100832.50;;;22.13;56.81
40570;BME280;26270;34.428;-119.710;2022-07-25T03:35:09;100837.28;;;22.11;57.41
40570;BME280;26270;34.428;-119.710;2022-07-25T03:37:37;100839.88;;;21.99;57.62
40570;BME280;26270;34.428;-119.710;2022-07-25T03:40:07;100843.24;;;21.84;58.17
40570;BME280;26270;34.428;-119.710;2022-07-25T03:42:35;100847.42;;;21.80;58.67
40570;BME280;26270;34.428;-119.710;2022-07-25T03:45:03;100845.41;;;21.83;58.32
40570;BME280;26270;34.428;-119.710;2022-07-25T03:47:32;100852.27;;;21.94;58.01
40570;BME280;26270;34.428;-119.710;2022-07-25T03:50:00;100854.60;;;21.81;58.85
40570;BME280;26270;34.428;-119.710;2022-07-25T03:52:28;100862.99;;;21.93;58.06
40570;BME280;26270;34.428;-119.710;2022-07-25T03:54:56;100866.47;;;21.67;58.80
40570;BME280;26270;34.428;-119.710;2022-07-25T03:57:25;100870.65;;;21.75;58.86
40570;BME280;26270;34.428;-119.710;2022-07-25T03:59:53;100875.72;;;21.68;58.97
40570;BME280;26270;34.428;-119.710;2022-07-25T04:03:20;100885.21;;;21.56;59.12
40570;BME280;26270;34.428;-119.710;2022-07-25T04:05:48;100888.03;;;21.63;58.69
40570;BME280;26270;34.428;-119.710;2022-07-25T04:08:16;100888.22;;;21.76;58.73
40570;BME280;26270;34.428;-119.710;2022-07-25T04:10:45;100889.58;;;21.58;58.72
40570;BME280;26270;34.428;-119.710;2022-07-25T04:13:13;100891.52;;;21.65;59.18
40570;BME280;26270;34.428;-119.710;2022-07-25T04:15:41;100895.33;;;21.54;59.15
40570;BME280;26270;34.428;-119.710;2022-07-25T04:18:10;100896.86;;;21.72;59.41
40570;BME280;26270;34.428;-119.710;2022-07-25T04:20:39;100899.30;;;21.59;59.41
40570;BME280;26270;34.428;-119.710;2022-07-25T04:23:07;100906.86;;;21.60;59.53
40570;BME280;26270;34.428;-119.710;2022-07-25T04:25:35;100910.89;;;21.73;59.61
40570;BME280;26270;34.428;-119.710;2022-07-25T04:28:03;100913.41;;;21.57;59.93
40570;BME280;26270;34.428;-119.710;2022-07-25T04:30:32;100916.73;;;21.55;60.19
40570;BME280;26270;34.428;-119.710;2022-07-25T04:33:00;100921.00;;;21.47;60.14
40570;BME280;26270;34.428;-119.710;2022-07-25T04:35:28;100925.71;;;21.48;60.03
40570;BME280;26270;34.428;-119.710;2022-07-25T04:37:56;100934.00;;;21.46;60.24
40570;BME280;26270;34.428;-119.710;2022-07-25T04:40:24;100941.03;;;21.41;60.43
40570;BME280;26270;34.428;-119.710;2022-07-25T04:42:53;100944.50;;;21.35;60.28
40570;BME280;26270;34.428;-119.710;2022-07-25T04:45:21;100954.54;;;21.63;59.99
40570;BME280;26270;34.428;-119.710;2022-07-25T04:47:50;100956.05;;;21.28;60.44
40570;BME280;26270;34.428;-119.710;2022-07-25T04:50:18;100956.75;;;21.39;60.51
40570;BME280;26270;34.428;-119.710;2022-07-25T04:52:46;100961.60;;;21.25;60.98
40570;BME280;26270;34.428;-119.710;2022-07-25T04:55:15;100967.02;;;21.44;60.57
40570;BME280;26270;34.428;-119.710;2022-07-25T04:57:43;100969.76;;;21.28;60.47
40570;BME280;26270;34.428;-119.710;2022-07-25T05:00:12;100972.97;;;21.23;60.51
40570;BME280;26270;34.428;-119.710;2022-07-25T05:02:41;100972.84;;;21.29;60.84
40570;BME280;26270;34.428;-119.710;2022-07-25T05:05:10;100978.62;;;21.37;60.69
40570;BME280;26270;34.428;-119.710;2022-07-25T05:07:37;100981.55;;;21.27;60.52
40570;BME280;26270;34.428;-119.710;2022-07-25T05:10:07;100985.54;;;21.27;60.98
40570;BME280;26270;34.428;-119.710;2022-07-25T05:12:35;100991.13;;;21.19;61.49
40570;BME280;26270;34.428;-119.710;2022-07-25T05:15:04;100989.72;;;21.28;61.23
40570;BME280;26270;34.428;-119.710;2022-07-25T05:17:32;100991.92;;;21.24;61.46
40570;BME280;26270;34.428;-119.710;2022-07-25T05:20:01;100991.04;;;21.45;61.17
40570;BME280;26270;34.428;-119.710;2022-07-25T05:22:29;100994.79;;;21.25;61.30
40570;BME280;26270;34.428;-119.710;2022-07-25T05:24:57;101002.01;;;21.26;61.47
40570;BME280;26270;34.428;-119.710;2022-07-25T05:27:25;101005.60;;;21.26;61.19
40570;BME280;26270;34.428;-119.710;2022-07-25T05:29:54;101007.36;;;21.14;61.83
40570;BME280;26270;34.428;-119.710;2022-07-25T05:32:22;101005.52;;;21.08;62.23
40570;BME280;26270;34.428;-119.710;2022-07-25T05:34:50;101007.61;;;21.22;61.67
40570;BME280;26270;34.428;-119.710;2022-07-25T05:37:19;101011.66;;;21.35;61.59
40570;BME280;26270;34.428;-119.710;2022-07-25T05:39:47;101009.64;;;21.26;61.78
40570;BME280;26270;34.428;-119.710;2022-07-25T05:42:16;101010.66;;;21.23;61.83
40570;BME280;26270;34.428;-119.710;2022-07-25T05:44:43;101009.25;;;21.23;61.71
40570;BME280;26270;34.428;-119.710;2022-07-25T05:47:12;101009.24;;;21.16;62.19
40570;BME280;26270;34.428;-119.710;2022-07-25T05:49:40;101010.53;;;21.25;61.73
40570;BME280;26270;34.428;-119.710;2022-07-25T05:52:08;101011.04;;;21.18;62.16
40570;BME280;26270;34.428;-119.710;2022-07-25T05:54:36;101011.30;;;21.18;62.04
40570;BME280;26270;34.428;-119.710;2022-07-25T05:57:04;101011.25;;;21.01;62.12
40570;BME280;26270;34.428;-119.710;2022-07-25T05:59:32;101009.61;;;21.21;62.10
40570;BME280;26270;34.428;-119.710;2022-07-25T06:02:01;101009.23;;;21.23;61.73
40570;BME280;26270;34.428;-119.710;2022-07-25T06:04:29;101012.22;;;21.27;61.79
40570;BME280;26270;34.428;-119.710;2022-07-25T06:06:57;101014.77;;;21.36;61.75
40570;BME280;26270;34.428;-119.710;2022-07-25T06:09:26;101018.93;;;21.36;61.89
40570;BME280;26270;34.428;-119.710;2022-07-25T06:11:54;101014.24;;;21.32;61.59
40570;BME280;26270;34.428;-119.710;2022-07-25T06:14:22;101014.42;;;21.31;61.56
40570;BME280;26270;34.428;-119.710;2022-07-25T06:16:50;101014.15;;;21.21;61.89
40570;BME280;26270;34.428;-119.710;2022-07-25T06:19:18;101017.98;;;21.24;62.06
40570;BME280;26270;34.428;-119.710;2022-07-25T06:21:46;101020.66;;;21.38;62.11
40570;BME280;26270;34.428;-119.710;2022-07-25T06:24:20;101022.30;;;21.30;61.75
40570;BME280;26270;34.428;-119.710;2022-07-25T06:26:49;101024.31;;;21.31;62.23
40570;BME280;26270;34.428;-119.710;2022-07-25T06:29:18;101018.35;;;21.16;62.24
40570;BME280;26270;34.428;-119.710;2022-07-25T06:31:47;101020.14;;;21.08;61.87
40570;BME280;26270;34.428;-119.710;2022-07-25T06:34:15;101018.31;;;21.29;61.64
40570;BME280;26270;34.428;-119.710;2022-07-25T06:36:43;101018.11;;;21.32;61.48
40570;BME280;26270;34.428;-119.710;2022-07-25T06:39:11;101018.82;;;21.26;61.87
40570;BME280;26270;34.428;-119.710;2022-07-25T06:41:39;101017.52;;;21.38;61.57
40570;BME280;26270;34.428;-119.710;2022-07-25T06:44:08;101018.53;;;21.33;61.87
40570;BME280;26270;34.428;-119.710;2022-07-25T06:46:37;101020.08;;;20.94;62.46
40570;BME280;26270;34.428;-119.710;2022-07-25T06:49:05;101021.19;;;21.02;62.60
40570;BME280;26270;34.428;-119.710;2022-07-25T06:51:34;101018.92;;;21.18;62.08
40570;BME280;26270;34.428;-119.710;2022-07-25T06:54:03;101020.39;;;21.13;62.26
40570;BME280;26270;34.428;-119.710;2022-07-25T06:56:31;101022.00;;;21.30;61.96
40570;BME280;26270;34.428;-119.710;2022-07-25T06:58:59;101023.21;;;21.28;62.19
40570;BME280;26270;34.428;-119.710;2022-07-25T07:01:27;101023.68;;;21.26;61.76
40570;BME280;26270;34.428;-119.710;2022-07-25T07:03:55;101019.96;;;21.31;61.88
40570;BME280;26270;34.428;-119.710;2022-07-25T07:06:23;101019.07;;;21.28;61.68
40570;BME280;26270;34.428;-119.710;2022-07-25T07:08:52;101018.32;;;21.19;61.65
40570;BME280;26270;34.428;-119.710;2022-07-25T07:11:20;101014.48;;;20.90;62.76
40570;BME280;26270;34.428;-119.710;2022-07-25T07:13:49;101012.73;;;20.96;62.63
40570;BME280;26270;34.428;-119.710;2022-07-25T07:16:16;101012.36;;;21.09;62.17
40570;BME280;26270;34.428;-119.710;2022-07-25T07:18:45;101014.10;;;21.21;62.06
40570;BME280;26270;34.428;-119.710;2022-07-25T07:21:13;101014.98;;;21.12;61.82
40570;BME280;26270;34.428;-119.710;2022-07-25T07:23:41;101014.65;;;21.00;61.87
40570;BME280;26270;34.428;-119.710;2022-07-25T07:26:09;101011.84;;;20.85;62.44
40570;BME280;26270;34.428;-119.710;2022-07-25T07:28:38;101008.65;;;21.01;62.53
40570;BME280;26270;34.428;-119.710;2022-07-25T07:31:06;101007.34;;;21.12;62.06
40570;BME280;26270;34.428;-119.710;2022-07-25T07:33:36;101009.23;;;21.08;61.94
40570;BME280;26270;34.428;-119.710;2022-07-25T07:36:04;101006.51;;;20.96;62.72
40570;BME280;26270;34.428;-119.710;2022-07-25T07:38:32;100999.69;;;21.21;62.24
40570;BME280;26270;34.428;-119.710;2022-07-25T07:41:01;100998.63;;;21.05;62.23
40570;BME280;26270;34.428;-119.710;2022-07-25T07:43:29;100998.04;;;20.96;62.17
40570;BME280;26270;34.428;-119.710;2022-07-25T07:45:58;101000.35;;;21.06;62.31
40570;BME280;26270;34.428;-119.710;2022-07-25T07:48:25;101000.82;;;21.11;62.00
40570;BME280;26270;34.428;-119.710;2022-07-25T07:50:54;101001.67;;;20.89;62.02
40570;BME280;26270;34.428;-119.710;2022-07-25T07:53:22;101004.67;;;20.87;62.24
40570;BME280;26270;34.428;-119.710;2022-07-25T07:55:51;101003.43;;;20.94;62.67
40570;BME280;26270;34.428;-119.710;2022-07-25T07:58:19;100999.62;;;20.86;62.60
40570;BME280;26270;34.428;-119.710;2022-07-25T08:00:49;100995.59;;;20.88;62.07
40570;BME280;26270;34.428;-119.710;2022-07-25T08:03:18;100989.38;;;20.86;62.30
40570;BME280;26270;34.428;-119.710;2022-07-25T08:05:47;100983.11;;;20.66;63.19
40570;BME280;26270;34.428;-119.710;2022-07-25T08:08:16;100982.55;;;20.85;62.49
40570;BME280;26270;34.428;-119.710;2022-07-25T08:10:46;100985.04;;;20.79;62.44
40570;BME280;26270;34.428;-119.710;2022-07-25T08:13:16;100982.17;;;20.97;62.02
40570;BME280;26270;34.428;-119.710;2022-07-25T08:15:46;100978.64;;;20.81;62.32
40570;BME280;26270;34.428;-119.710;2022-07-25T08:18:15;100976.99;;;20.90;62.49
40570;BME280;26270;34.428;-119.710;2022-07-25T08:20:43;100974.96;;;20.73;62.18
40570;BME280;26270;34.428;-119.710;2022-07-25T08:23:11;100978.19;;;20.92;62.09
40570;BME280;26270;34.428;-119.710;2022-07-25T08:25:40;100979.70;;;20.98;61.74
40570;BME280;26270;34.428;-119.710;2022-07-25T08:28:08;100976.56;;;21.02;61.87
40570;BME280;26270;34.428;-119.710;2022-07-25T08:30:38;100972.11;;;20.93;62.17
40570;BME280;26270;34.428;-119.710;2022-07-25T08:33:08;100972.10;;;20.73;62.51
40570;BME280;26270;34.428;-119.710;2022-07-25T08:35:36;100964.76;;;20.82;62.43
40570;BME280;26270;34.428;-119.710;2022-07-25T08:38:05;100961.86;;;20.81;62.18
40570;BME280;26270;34.428;-119.710;2022-07-25T08:40:34;100961.13;;;20.91;61.98
40570;BME280;26270;34.428;-119.710;2022-07-25T08:43:02;100956.46;;;20.71;62.14
40570;BME280;26270;34.428;-119.710;2022-07-25T08:45:30;100958.71;;;20.58;62.79
40570;BME280;26270;34.428;-119.710;2022-07-25T08:47:59;100960.05;;;20.69;62.91
40570;BME280;26270;34.428;-119.710;2022-07-25T08:50:28;100959.59;;;20.70;62.65
40570;BME280;26270;34.428;-119.710;2022-07-25T08:52:57;100958.76;;;20.69;62.70
40570;BME280;26270;34.428;-119.710;2022-07-25T08:55:25;100957.55;;;20.81;62.44
40570;BME280;26270;34.428;-119.710;2022-07-25T08:57:53;100959.66;;;20.65;62.63
40570;BME280;26270;34.428;-119.710;2022-07-25T09:00:24;100960.74;;;20.72;62.74
40570;BME280;26270;34.428;-119.710;2022-07-25T09:02:54;100960.10;;;20.68;62.56
40570;BME280;26270;34.428;-119.710;2022-07-25T09:05:23;100958.55;;;20.71;62.82
40570;BME280;26270;34.428;-119.710;2022-07-25T09:07:52;100950.57;;;20.72;62.76
40570;BME280;26270;34.428;-119.710;2022-07-25T09:10:22;100945.84;;;20.74;62.43
40570;BME280;26270;34.428;-119.710;2022-07-25T09:12:52;100945.89;;;20.59;62.39
40570;BME280;26270;34.428;-119.710;2022-07-25T09:15:25;100946.93;;;20.52;62.82
40570;BME280;26270;34.428;-119.710;2022-07-25T09:17:55;100947.52;;;20.53;63.01
40570;BME280;26270;34.428;-119.710;2022-07-25T09:20:23;100948.06;;;20.46;62.66
40570;BME280;26270;34.428;-119.710;2022-07-25T09:22:51;100946.52;;;20.67;62.41
40570;BME280;26270;34.428;-119.710;2022-07-25T09:25:22;100952.66;;;20.67;62.41
40570;BME280;26270;34.428;-119.710;2022-07-25T09:27:50;100962.47;;;20.60;62.69
40570;BME280;26270;34.428;-119.710;2022-07-25T09:30:19;100968.67;;;20.77;62.55
40570;BME280;26270;34.428;-119.710;2022-07-25T09:32:57;100972.93;;;20.74;62.50
40570;BME280;26270;34.428;-119.710;2022-07-25T09:35:30;100973.72;;;20.66;62.15
40570;BME280;26270;34.428;-119.710;2022-07-25T09:38:08;100971.84;;;20.71;62.29
40570;BME280;26270;34.428;-119.710;2022-07-25T09:40:36;100971.77;;;20.36;62.89
40570;BME280;26270;34.428;-119.710;2022-07-25T09:43:04;100977.12;;;20.56;62.50
40570;BME280;26270;34.428;-119.710;2022-07-25T09:45:33;100980.75;;;20.67;62.24
40570;BME280;26270;34.428;-119.710;2022-07-25T09:48:03;100980.51;;;20.59;62.35
40570;BME280;26270;34.428;-119.710;2022-07-25T09:50:32;100980.46;;;20.62;62.53
40570;BME280;26270;34.428;-119.710;2022-07-25T09:53:01;100981.68;;;20.61;62.40
40570;BME280;26270;34.428;-119.710;2022-07-25T09:55:30;100976.20;;;20.61;62.36
40570;BME280;26270;34.428;-119.710;2022-07-25T09:57:58;100974.05;;;20.64;62.55
40570;BME280;26270;34.428;-119.710;2022-07-25T10:00:27;100976.62;;;20.62;62.50
40570;BME280;26270;34.428;-119.710;2022-07-25T10:03:09;100972.94;;;20.48;63.07
40570;BME280;26270;34.428;-119.710;2022-07-25T10:05:52;100972.55;;;20.31;63.31
40570;BME280;26270;34.428;-119.710;2022-07-25T10:08:25;100975.75;;;20.50;62.57
40570;BME280;26270;34.428;-119.710;2022-07-25T10:10:53;100976.75;;;20.49;63.45
40570;BME280;26270;34.428;-119.710;2022-07-25T10:13:30;100981.69;;;20.57;62.99
40570;BME280;26270;34.428;-119.710;2022-07-25T10:15:59;100980.94;;;20.49;62.83
40570;BME280;26270;34.428;-119.710;2022-07-25T10:18:29;100982.93;;;20.43;62.88
40570;BME280;26270;34.428;-119.710;2022-07-25T10:21:09;100986.09;;;20.54;63.10
40570;BME280;26270;34.428;-119.710;2022-07-25T10:23:37;100987.07;;;20.38;63.29
40570;BME280;26270;34.428;-119.710;2022-07-25T10:26:09;100989.86;;;20.40;63.31
40570;BME280;26270;34.428;-119.710;2022-07-25T10:28:41;100989.99;;;20.05;65.39
40570;BME280;26270;34.428;-119.710;2022-07-25T10:31:20;100987.36;;;20.33;64.03
40570;BME280;26270;34.428;-119.710;2022-07-25T10:33:51;100988.74;;;20.21;63.99
40570;BME280;26270;34.428;-119.710;2022-07-25T10:36:19;100988.49;;;20.51;63.60
40570;BME280;26270;34.428;-119.710;2022-07-25T10:38:52;100983.72;;;20.43;63.30
40570;BME280;26270;34.428;-119.710;2022-07-25T10:41:24;100979.14;;;20.22;63.85
40570;BME280;26270;34.428;-119.710;2022-07-25T10:43:58;100979.87;;;20.42;63.75
40570;BME280;26270;34.428;-119.710;2022-07-25T10:46:28;100983.65;;;20.25;63.90
40570;BME280;26270;34.428;-119.710;2022-07-25T10:48:59;100986.39;;;20.39;63.65
40570;BME280;26270;34.428;-119.710;2022-07-25T10:51:31;100984.58;;;20.24;64.27
40570;BME280;26270;34.428;-119.710;2022-07-25T10:54:00;100983.01;;;20.26;64.27
40570;BME280;26270;34.428;-119.710;2022-07-25T10:56:52;100984.89;;;20.24;64.34
40570;BME280;26270;34.428;-119.710;2022-07-25T10:59:31;100984.65;;;20.29;64.17
40570;BME280;26270;34.428;-119.710;2022-07-25T11:02:00;100979.56;;;20.33;63.83
40570;BME280;26270;34.428;-119.710;2022-07-25T11:04:28;100979.41;;;19.87;65.48
40570;BME280;26270;34.428;-119.710;2022-07-25T11:06:57;100981.79;;;20.23;65.10
40570;BME280;26270;34.428;-119.710;2022-07-25T11:09:33;100985.16;;;20.13;64.33
40570;BME280;26270;34.428;-119.710;2022-07-25T11:12:01;100986.14;;;20.13;64.28
40570;BME280;26270;34.428;-119.710;2022-07-25T11:14:32;100989.25;;;20.12;64.69
40570;BME280;26270;34.428;-119.710;2022-07-25T11:17:12;100995.81;;;19.90;65.40
40570;BME280;26270;34.428;-119.710;2022-07-25T11:19:41;100996.00;;;20.03;64.97
40570;BME280;26270;34.428;-119.710;2022-07-25T11:22:10;100996.85;;;20.14;64.84
40570;BME280;26270;34.428;-119.710;2022-07-25T11:24:40;101000.48;;;20.14;64.97
40570;BME280;26270;34.428;-119.710;2022-07-25T11:27:11;100999.46;;;20.19;64.66
40570;BME280;26270;34.428;-119.710;2022-07-25T11:29:39;100997.51;;;19.94;64.42
40570;BME280;26270;34.428;-119.710;2022-07-25T11:32:10;100997.06;;;19.81;65.41
40570;BME280;26270;34.428;-119.710;2022-07-25T11:34:41;100999.62;;;19.90;65.48
40570;BME280;26270;34.428;-119.710;2022-07-25T11:37:11;101003.42;;;19.72;65.83
40570;BME280;26270;34.428;-119.710;2022-07-25T11:39:42;100996.06;;;19.97;65.34
40570;BME280;26270;34.428;-119.710;2022-07-25T11:42:12;100993.45;;;19.85;65.46
40570;BME280;26270;34.428;-119.710;2022-07-25T11:44:43;100995.43;;;19.67;66.05
40570;BME280;26270;34.428;-119.710;2022-07-25T11:47:23;100987.67;;;19.83;65.52
40570;BME280;26270;34.428;-119.710;2022-07-25T11:49:53;100988.86;;;19.90;65.22
40570;BME280;26270;34.428;-119.710;2022-07-25T11:52:24;100989.93;;;19.81;65.39
40570;BME280;26270;34.428;-119.710;2022-07-25T11:54:54;100990.06;;;20.03;64.72
40570;BME280;26270;34.428;-119.710;2022-07-25T11:57:24;100990.77;;;19.87;64.96
40570;BME280;26270;34.428;-119.710;2022-07-25T11:59:53;100993.51;;;19.83;64.96
40570;BME280;26270;34.428;-119.710;2022-07-25T12:02:24;100991.19;;;19.98;64.37
40570;BME280;26270;34.428;-119.710;2022-07-25T12:04:54;100995.15;;;19.70;65.36
40570;BME280;26270;34.428;-119.710;2022-07-25T12:07:36;101001.37;;;19.79;65.03
40570;BME280;26270;34.428;-119.710;2022-07-25T12:10:06;101005.59;;;19.82;64.92
40570;BME280;26270;34.428;-119.710;2022-07-25T12:12:52;101006.46;;;19.73;65.11
40570;BME280;26270;34.428;-119.710;2022-07-25T12:15:22;101004.72;;;19.73;65.00
40570;BME280;26270;34.428;-119.710;2022-07-25T12:17:53;101004.89;;;20.04;64.03
40570;BME280;26270;34.428;-119.710;2022-07-25T12:20:23;101010.57;;;19.87;64.92
40570;BME280;26270;34.428;-119.710;2022-07-25T12:22:53;101008.66;;;19.96;64.79
40570;BME280;26270;34.428;-119.710;2022-07-25T12:25:22;101006.48;;;19.89;64.55
40570;BME280;26270;34.428;-119.710;2022-07-25T12:27:50;101004.72;;;19.85;64.64
40570;BME280;26270;34.428;-119.710;2022-07-25T12:30:18;101002.81;;;19.87;64.41
40570;BME280;26270;34.428;-119.710;2022-07-25T12:32:46;100999.07;;;19.82;64.55